sensor_id;sensor_type;location;lat;lon;timestamp;temperature;humidity
44166;DHT22;30476;53.468;9.826;2023-12-28T00:00:35;8.70;99.90
44166;DHT22;30476;53.468;9.826;2023-12-28T00:03:00;8.70;99.90
44166;DHT22;30476;53.468;9.826;2023-12-28T00:05:26;8.60;99.90
44166;DHT22;30476;53.468;9.826;2023-12-28T00:07:52;8.70;99.90
44166;DHT22;30476;53.468;9.826;2023-12-28T00:10:27;8.70;99.90
44166;DHT22;30476;53.468;9.826;2023-12-28T00:12:53;8.70;99.90
44166;DHT22;30476;53.468;9.826;2023-12-28T00:15:19;8.70;99.90
44166;DHT22;30476;53.468;9.826;2023-12-28T00:17:45;8.70;99.90
44166;DHT22;30476;53.468;9.826;2023-12-28T00:20:12;8.70;99.90
44166;DHT22;30476;53.468;9.826;2023-12-28T00:22:38;8.70;99.90
44166;DHT22;30476;53.468;9.826;2023-12-28T00:25:04;8.70;99.90
44166;DHT22;30476;53.468;9.826;2023-12-28T00:27:30;8.70;99.90
44166;DHT22;30476;53.468;9.826;2023-12-28T00:29:56;8.60;99.90
44166;DHT22;30476;53.468;9.826;2023-12-28T00:32:21;8.60;99.90
44166;DHT22;30476;53.468;9.826;2023-12-28T00:34:47;8.60;99.90
44166;DHT22;30476;53.468;9.826;2023-12-28T00:37:13;8.60;99.90
44166;DHT22;30476;53.468;9.826;2023-12-28T00:39:39;8.60;99.90
44166;DHT22;30476;53.468;9.826;2023-12-28T00:42:06;8.50;99.90
44166;DHT22;30476;53.468;9.826;2023-12-28T00:44:32;8.60;99.90
44166;DHT22;30476;53.468;9.826;2023-12-28T00:46:58;8.60;99.90
44166;DHT22;30476;53.468;9.826;2023-12-28T00:49:24;8.60;99.90
44166;DHT22;30476;53.468;9.826;2023-12-28T00:51:49;8.50;99.90
44166;DHT22;30476;53.468;9.826;2023-12-28T00:54:15;8.60;99.90
44166;DHT22;30476;53.468;9.826;2023-12-28T00:56:41;8.60;99.90
44166;DHT22;30476;53.468;9.826;2023-12-28T00:59:07;8.60;99.90
44166;DHT22;30476;53.468;9.826;2023-12-28T01:01:32;8.60;99.90
44166;DHT22;30476;53.468;9.826;2023-12-28T01:03:58;8.60;99.90
44166;DHT22;30476;53.468;9.826;2023-12-28T01:06:24;8.60;99.90
44166;DHT22;30476;53.468;9.826;2023-12-28T01:08:57;8.60;99.90
44166;DHT22;30476;53.468;9.826;2023-12-28T01:11:22;8.60;99.90
44166;DHT22;30476;53.468;9.826;2023-12-28T01:13:48;8.60;99.90
44166;DHT22;30476;53.468;9.826;2023-12-28T01:16:14;8.60;99.90
44166;DHT22;30476;53.468;9.826;2023-12-28T01:18:40;8.50;99.90
44166;DHT22;30476;53.468;9.826;2023-12-28T01:21:06;8.60;99.90
44166;DHT22;30476;53.468;9.826;2023-12-28T01:23:32;8.50;99.90
44166;DHT22;30476;53.468;9.826;2023-12-28T01:25:59;8.60;99.90
44166;DHT22;30476;53.468;9.826;2023-12-28T01:28:25;8.60;99.90
44166;DHT22;30476;53.468;9.826;2023-12-28T01:30:50;8.60;99.90
44166;DHT22;30476;53.468;9.826;2023-12-28T01:33:16;8.60;99.90
44166;DHT22;30476;53.468;9.826;2023-12-28T01:35:42;8.60;99.90
44166;DHT22;30476;53.468;9.826;2023-12-28T01:38:08;8.60;99.90
44166;DHT22;30476;53.468;9.826;2023-12-28T01:40:34;8.60;99.90
44166;DHT22;30476;53.468;9.826;2023-12-28T01:42:59;8.70;99.90
44166;DHT22;30476;53.468;9.826;2023-12-28T01:45:25;8.70;99.90
44166;DHT22;30476;53.468;9.826;2023-12-28T01:47:53;8.70;99.90
44166;DHT22;30476;53.468;9.826;2023-12-28T01:50:23;8.70;99.90
44166;DHT22;30476;53.468;9.826;2023-12-28T01:52:50;8.70;99.90
44166;DHT22;30476;53.468;9.826;2023-12-28T01:55:16;8.60;99.90
44166;DHT22;30476;53.468;9.826;2023-12-28T01:57:43;8.70;99.90
44166;DHT22;30476;53.468;9.826;2023-12-28T02:00:09;8.70;99.90
44166;DHT22;30476;53.468;9.826;2023-12-28T02:02:36;8.70;99.90
44166;DHT22;30476;53.468;9.826;2023-12-28T02:05:02;8.70;99.90
44166;DHT22;30476;53.468;9.826;2023-12-28T02:07:29;8.80;99.90
44166;DHT22;30476;53.468;9.826;2023-12-28T02:09:55;8.80;99.90
44166;DHT22;30476;53.468;9.826;2023-12-28T02:12:21;8.80;99.90
44166;DHT22;30476;53.468;9.826;2023-12-28T02:14:47;8.80;99.90
44166;DHT22;30476;53.468;9.826;2023-12-28T02:17:16;8.80;99.90
44166;DHT22;30476;53.468;9.826;2023-12-28T02:19:50;8.80;99.90
44166;DHT22;30476;53.468;9.826;2023-12-28T02:22:17;8.80;99.90
44166;DHT22;30476;53.468;9.826;2023-12-28T02:25:05;8.90;99.90
44166;DHT22;30476;53.468;9.826;2023-12-28T02:27:36;8.90;99.90
44166;DHT22;30476;53.468;9.826;2023-12-28T02:30:03;8.90;99.90
44166;DHT22;30476;53.468;9.826;2023-12-28T02:32:39;8.90;99.90
44166;DHT22;30476;53.468;9.826;2023-12-28T02:36:01;8.90;99.90
44166;DHT22;30476;53.468;9.826;2023-12-28T02:38:09;8.90;99.90
44166;DHT22;30476;53.468;9.826;2023-12-28T02:40:39;8.90;99.90
44166;DHT22;30476;53.468;9.826;2023-12-28T02:43:09;8.90;99.90
44166;DHT22;30476;53.468;9.826;2023-12-28T02:45:35;8.90;99.90
44166;DHT22;30476;53.468;9.826;2023-12-28T02:48:02;8.90;99.90
44166;DHT22;30476;53.468;9.826;2023-12-28T02:50:28;8.90;99.90
44166;DHT22;30476;53.468;9.826;2023-12-28T02:52:56;8.90;99.90
44166;DHT22;30476;53.468;9.826;2023-12-28T02:55:22;9.00;99.90
44166;DHT22;30476;53.468;9.826;2023-12-28T02:57:50;9.00;99.90
44166;DHT22;30476;53.468;9.826;2023-12-28T03:00:16;9.00;99.90
44166;DHT22;30476;53.468;9.826;2023-12-28T03:02:42;9.00;99.90
44166;DHT22;30476;53.468;9.826;2023-12-28T03:05:08;9.00;99.90
44166;DHT22;30476;53.468;9.826;2023-12-28T03:07:35;9.00;99.90
44166;DHT22;30476;53.468;9.826;2023-12-28T03:10:01;9.00;99.90
44166;DHT22;30476;53.468;9.826;2023-12-28T03:12:29;9.00;99.90
44166;DHT22;30476;53.468;9.826;2023-12-28T03:14:55;9.00;99.90
44166;DHT22;30476;53.468;9.826;2023-12-28T03:17:21;9.00;99.90
44166;DHT22;30476;53.468;9.826;2023-12-28T03:19:46;9.00;99.90
44166;DHT22;30476;53.468;9.826;2023-12-28T03:22:12;9.00;99.90
44166;DHT22;30476;53.468;9.826;2023-12-28T03:24:38;9.00;99.90
44166;DHT22;30476;53.468;9.826;2023-12-28T03:27:05;9.00;99.90
44166;DHT22;30476;53.468;9.826;2023-12-28T03:29:31;9.00;99.90
44166;DHT22;30476;53.468;9.826;2023-12-28T03:31:56;9.00;99.90
44166;DHT22;30476;53.468;9.826;2023-12-28T03:34:22;9.00;99.90
44166;DHT22;30476;53.468;9.826;2023-12-28T03:36:49;9.00;99.90
44166;DHT22;30476;53.468;9.826;2023-12-28T03:39:14;9.00;99.90
44166;DHT22;30476;53.468;9.826;2023-12-28T03:41:40;9.00;99.90
44166;DHT22;30476;53.468;9.826;2023-12-28T03:44:06;9.10;99.90
44166;DHT22;30476;53.468;9.826;2023-12-28T03:46:32;9.10;99.90
44166;DHT22;30476;53.468;9.826;2023-12-28T03:48:58;9.10;99.90
44166;DHT22;30476;53.468;9.826;2023-12-28T03:51:24;9.10;99.90
44166;DHT22;30476;53.468;9.826;2023-12-28T03:53:49;9.10;99.90
44166;DHT22;30476;53.468;9.826;2023-12-28T03:56:25;9.10;99.90
44166;DHT22;30476;53.468;9.826;2023-12-28T03:58:52;9.10;99.90
44166;DHT22;30476;53.468;9.826;2023-12-28T04:01:19;9.10;99.90
44166;DHT22;30476;53.468;9.826;2023-12-28T04:03:45;9.00;99.90
44166;DHT22;30476;53.468;9.826;2023-12-28T04:06:11;9.00;99.90
44166;DHT22;30476;53.468;9.826;2023-12-28T04:08:38;9.10;99.90
44166;DHT22;30476;53.468;9.826;2023-12-28T04:11:04;9.00;99.90
44166;DHT22;30476;53.468;9.826;2023-12-28T04:13:30;9.00;99.90
44166;DHT22;30476;53.468;9.826;2023-12-28T04:15:56;9.00;99.90
44166;DHT22;30476;53.468;9.826;2023-12-28T04:18:21;9.00;99.90
44166;DHT22;30476;53.468;9.826;2023-12-28T04:20:47;9.00;99.90
44166;DHT22;30476;53.468;9.826;2023-12-28T04:23:14;9.00;99.90
44166;DHT22;30476;53.468;9.826;2023-12-28T04:25:40;9.00;99.90
44166;DHT22;30476;53.468;9.826;2023-12-28T04:28:06;9.00;99.90
44166;DHT22;30476;53.468;9.826;2023-12-28T04:30:32;9.00;99.90
44166;DHT22;30476;53.468;9.826;2023-12-28T04:32:58;9.00;99.90
44166;DHT22;30476;53.468;9.826;2023-12-28T04:35:24;9.00;99.90
44166;DHT22;30476;53.468;9.826;2023-12-28T04:37:49;9.00;99.90
44166;DHT22;30476;53.468;9.826;2023-12-28T04:40:15;9.00;99.90
44166;DHT22;30476;53.468;9.826;2023-12-28T04:42:43;9.00;99.90
44166;DHT22;30476;53.468;9.826;2023-12-28T04:45:09;9.00;99.90
44166;DHT22;30476;53.468;9.826;2023-12-28T04:47:36;9.00;99.90
44166;DHT22;30476;53.468;9.826;2023-12-28T04:50:03;8.90;99.90
44166;DHT22;30476;53.468;9.826;2023-12-28T04:52:29;8.90;99.90
44166;DHT22;30476;53.468;9.826;2023-12-28T04:54:55;9.00;99.90
44166;DHT22;30476;53.468;9.826;2023-12-28T04:57:20;9.00;99.90
44166;DHT22;30476;53.468;9.826;2023-12-28T04:59:46;9.00;99.90
44166;DHT22;30476;53.468;9.826;2023-12-28T05:02:12;9.00;99.90
44166;DHT22;30476;53.468;9.826;2023-12-28T05:04:38;9.00;99.90
44166;DHT22;30476;53.468;9.826;2023-12-28T05:07:06;9.00;99.90
44166;DHT22;30476;53.468;9.826;2023-12-28T05:09:32;9.00;99.90
44166;DHT22;30476;53.468;9.826;2023-12-28T05:11:58;9.00;99.90
44166;DHT22;30476;53.468;9.826;2023-12-28T05:14:24;9.00;99.90
44166;DHT22;30476;53.468;9.826;2023-12-28T05:16:49;9.00;99.90
44166;DHT22;30476;53.468;9.826;2023-12-28T05:19:15;9.00;99.90
44166;DHT22;30476;53.468;9.826;2023-12-28T05:21:41;9.00;99.90
44166;DHT22;30476;53.468;9.826;2023-12-28T05:24:07;9.00;99.90
44166;DHT22;30476;53.468;9.826;2023-12-28T05:26:33;9.00;99.90
44166;DHT22;30476;53.468;9.826;2023-12-28T05:28:59;9.00;99.90
44166;DHT22;30476;53.468;9.826;2023-12-28T05:31:25;9.00;99.90
44166;DHT22;30476;53.468;9.826;2023-12-28T05:33:51;9.00;99.90
44166;DHT22;30476;53.468;9.826;2023-12-28T05:36:16;9.00;99.90
44166;DHT22;30476;53.468;9.826;2023-12-28T05:38:42;9.00;99.90
44166;DHT22;30476;53.468;9.826;2023-12-28T05:41:11;9.00;99.90
44166;DHT22;30476;53.468;9.826;2023-12-28T05:43:38;9.00;99.90
44166;DHT22;30476;53.468;9.826;2023-12-28T05:46:04;9.00;99.90
44166;DHT22;30476;53.468;9.826;2023-12-28T05:48:30;9.00;99.90
44166;DHT22;30476;53.468;9.826;2023-12-28T05:50:58;9.10;99.90
44166;DHT22;30476;53.468;9.826;2023-12-28T05:53:25;9.10;99.90
44166;DHT22;30476;53.468;9.826;2023-12-28T05:55:52;9.10;99.90
44166;DHT22;30476;53.468;9.826;2023-12-28T05:58:18;9.10;99.90
44166;DHT22;30476;53.468;9.826;2023-12-28T06:00:44;9.10;99.90
44166;DHT22;30476;53.468;9.826;2023-12-28T06:03:12;9.10;99.90
44166;DHT22;30476;53.468;9.826;2023-12-28T06:05:37;9.10;99.90
44166;DHT22;30476;53.468;9.826;2023-12-28T06:08:04;9.20;99.90
44166;DHT22;30476;53.468;9.826;2023-12-28T06:10:29;9.20;99.90
44166;DHT22;30476;53.468;9.826;2023-12-28T06:12:55;9.20;99.90
44166;DHT22;30476;53.468;9.826;2023-12-28T06:15:21;9.30;99.90
44166;DHT22;30476;53.468;9.826;2023-12-28T06:17:47;9.30;99.90
44166;DHT22;30476;53.468;9.826;2023-12-28T06:20:13;9.20;99.90
44166;DHT22;30476;53.468;9.826;2023-12-28T06:22:39;9.40;99.90
44166;DHT22;30476;53.468;9.826;2023-12-28T06:25:05;9.30;99.90
44166;DHT22;30476;53.468;9.826;2023-12-28T06:27:31;9.40;99.90
44166;DHT22;30476;53.468;9.826;2023-12-28T06:29:57;9.40;99.90
44166;DHT22;30476;53.468;9.826;2023-12-28T06:32:24;9.50;99.90
44166;DHT22;30476;53.468;9.826;2023-12-28T06:34:50;9.50;99.90
44166;DHT22;30476;53.468;9.826;2023-12-28T06:37:15;9.50;99.90
44166;DHT22;30476;53.468;9.826;2023-12-28T06:39:41;9.50;99.90
44166;DHT22;30476;53.468;9.826;2023-12-28T06:42:07;9.50;99.90
44166;DHT22;30476;53.468;9.826;2023-12-28T06:44:33;9.60;99.90
44166;DHT22;30476;53.468;9.826;2023-12-28T06:46:59;9.60;99.90
44166;DHT22;30476;53.468;9.826;2023-12-28T06:49:25;9.60;99.90
44166;DHT22;30476;53.468;9.826;2023-12-28T06:51:51;9.60;99.90
44166;DHT22;30476;53.468;9.826;2023-12-28T06:54:17;9.70;99.90
44166;DHT22;30476;53.468;9.826;2023-12-28T06:56:43;9.70;99.90
44166;DHT22;30476;53.468;9.826;2023-12-28T06:59:09;9.70;99.90
44166;DHT22;30476;53.468;9.826;2023-12-28T07:01:41;9.70;99.90
44166;DHT22;30476;53.468;9.826;2023-12-28T07:04:07;9.80;99.90
44166;DHT22;30476;53.468;9.826;2023-12-28T07:06:33;9.70;99.90
44166;DHT22;30476;53.468;9.826;2023-12-28T07:08:59;9.80;99.90
44166;DHT22;30476;53.468;9.826;2023-12-28T07:11:25;9.80;99.90
44166;DHT22;30476;53.468;9.826;2023-12-28T07:13:52;9.80;99.90
44166;DHT22;30476;53.468;9.826;2023-12-28T07:16:18;9.80;99.90
44166;DHT22;30476;53.468;9.826;2023-12-28T07:18:43;9.80;99.90
44166;DHT22;30476;53.468;9.826;2023-12-28T07:21:09;9.90;99.90
44166;DHT22;30476;53.468;9.826;2023-12-28T07:23:35;9.90;99.90
44166;DHT22;30476;53.468;9.826;2023-12-28T07:26:02;9.90;99.90
44166;DHT22;30476;53.468;9.826;2023-12-28T07:28:27;9.90;99.90
44166;DHT22;30476;53.468;9.826;2023-12-28T07:30:53;9.90;99.90
44166;DHT22;30476;53.468;9.826;2023-12-28T07:33:19;9.90;99.90
44166;DHT22;30476;53.468;9.826;2023-12-28T07:35:45;9.90;99.90
44166;DHT22;30476;53.468;9.826;2023-12-28T07:38:11;9.90;99.90
44166;DHT22;30476;53.468;9.826;2023-12-28T07:40:37;9.90;99.90
44166;DHT22;30476;53.468;9.826;2023-12-28T07:43:03;9.90;99.90
44166;DHT22;30476;53.468;9.826;2023-12-28T07:45:29;9.90;99.90
44166;DHT22;30476;53.468;9.826;2023-12-28T07:47:55;10.00;99.90
44166;DHT22;30476;53.468;9.826;2023-12-28T07:50:21;9.90;99.90
44166;DHT22;30476;53.468;9.826;2023-12-28T07:52:47;9.90;99.90
44166;DHT22;30476;53.468;9.826;2023-12-28T07:55:13;9.90;99.90
44166;DHT22;30476;53.468;9.826;2023-12-28T07:57:39;10.00;99.90
44166;DHT22;30476;53.468;9.826;2023-12-28T08:00:06;9.90;99.90
44166;DHT22;30476;53.468;9.826;2023-12-28T08:02:33;10.00;99.90
44166;DHT22;30476;53.468;9.826;2023-12-28T08:04:58;10.00;99.90
44166;DHT22;30476;53.468;9.826;2023-12-28T08:07:24;10.00;99.90
44166;DHT22;30476;53.468;9.826;2023-12-28T08:09:50;10.00;99.90
44166;DHT22;30476;53.468;9.826;2023-12-28T08:12:16;10.10;99.90
44166;DHT22;30476;53.468;9.826;2023-12-28T08:14:43;10.10;99.90
44166;DHT22;30476;53.468;9.826;2023-12-28T08:17:09;10.10;99.90
44166;DHT22;30476;53.468;9.826;2023-12-28T08:19:35;10.10;99.90
44166;DHT22;30476;53.468;9.826;2023-12-28T08:22:01;10.20;99.90
44166;DHT22;30476;53.468;9.826;2023-12-28T08:24:26;10.20;99.90
44166;DHT22;30476;53.468;9.826;2023-12-28T08:26:52;10.20;99.90
44166;DHT22;30476;53.468;9.826;2023-12-28T08:29:18;10.30;99.90
44166;DHT22;30476;53.468;9.826;2023-12-28T08:31:44;10.30;99.90
44166;DHT22;30476;53.468;9.826;2023-12-28T08:34:10;10.30;99.90
44166;DHT22;30476;53.468;9.826;2023-12-28T08:36:36;10.30;99.90
44166;DHT22;30476;53.468;9.826;2023-12-28T08:39:01;10.40;99.90
44166;DHT22;30476;53.468;9.826;2023-12-28T08:41:28;10.40;99.90
44166;DHT22;30476;53.468;9.826;2023-12-28T08:43:53;10.40;99.90
44166;DHT22;30476;53.468;9.826;2023-12-28T08:46:21;10.40;99.90
44166;DHT22;30476;53.468;9.826;2023-12-28T08:48:47;10.50;99.90
44166;DHT22;30476;53.468;9.826;2023-12-28T08:51:12;10.50;99.90
44166;DHT22;30476;53.468;9.826;2023-12-28T08:53:40;10.50;99.90
44166;DHT22;30476;53.468;9.826;2023-12-28T08:56:17;10.50;99.90
44166;DHT22;30476;53.468;9.826;2023-12-28T08:58:44;10.50;99.90
44166;DHT22;30476;53.468;9.826;2023-12-28T09:01:20;10.50;99.90
44166;DHT22;30476;53.468;9.826;2023-12-28T09:03:48;10.60;99.90
44166;DHT22;30476;53.468;9.826;2023-12-28T09:06:15;10.60;99.90
44166;DHT22;30476;53.468;9.826;2023-12-28T09:08:42;10.60;99.90
44166;DHT22;30476;53.468;9.826;2023-12-28T09:11:11;10.70;99.90
44166;DHT22;30476;53.468;9.826;2023-12-28T09:13:38;10.70;99.90
44166;DHT22;30476;53.468;9.826;2023-12-28T09:16:05;10.70;99.90
44166;DHT22;30476;53.468;9.826;2023-12-28T09:18:31;10.70;99.90
44166;DHT22;30476;53.468;9.826;2023-12-28T09:20:56;10.80;99.90
44166;DHT22;30476;53.468;9.826;2023-12-28T09:23:22;10.70;99.90
44166;DHT22;30476;53.468;9.826;2023-12-28T09:25:48;10.80;99.90
44166;DHT22;30476;53.468;9.826;2023-12-28T09:28:14;10.80;99.90
44166;DHT22;30476;53.468;9.826;2023-12-28T09:30:40;10.80;99.90
44166;DHT22;30476;53.468;9.826;2023-12-28T09:33:06;10.80;99.90
44166;DHT22;30476;53.468;9.826;2023-12-28T09:35:32;10.90;99.90
44166;DHT22;30476;53.468;9.826;2023-12-28T09:37:57;10.90;99.90
44166;DHT22;30476;53.468;9.826;2023-12-28T09:40:24;10.90;99.90
44166;DHT22;30476;53.468;9.826;2023-12-28T09:45:33;10.90;99.90
44166;DHT22;30476;53.468;9.826;2023-12-28T09:47:59;10.90;99.90
44166;DHT22;30476;53.468;9.826;2023-12-28T09:50:25;11.00;99.90
44166;DHT22;30476;53.468;9.826;2023-12-28T09:52:53;11.00;99.90
44166;DHT22;30476;53.468;9.826;2023-12-28T09:55:19;11.00;99.90
44166;DHT22;30476;53.468;9.826;2023-12-28T09:57:46;11.10;99.90
44166;DHT22;30476;53.468;9.826;2023-12-28T10:00:12;11.10;99.90
44166;DHT22;30476;53.468;9.826;2023-12-28T10:02:40;11.00;99.90
44166;DHT22;30476;53.468;9.826;2023-12-28T10:05:12;11.10;99.90
44166;DHT22;30476;53.468;9.826;2023-12-28T10:07:45;11.10;99.90
44166;DHT22;30476;53.468;9.826;2023-12-28T10:10:11;11.10;99.90
44166;DHT22;30476;53.468;9.826;2023-12-28T10:12:37;11.10;99.90
44166;DHT22;30476;53.468;9.826;2023-12-28T10:15:06;11.10;99.90
44166;DHT22;30476;53.468;9.826;2023-12-28T10:17:33;11.10;99.90
44166;DHT22;30476;53.468;9.826;2023-12-28T10:19:59;11.10;99.90
44166;DHT22;30476;53.468;9.826;2023-12-28T10:22:31;11.10;99.90
44166;DHT22;30476;53.468;9.826;2023-12-28T10:24:57;11.20;99.90
44166;DHT22;30476;53.468;9.826;2023-12-28T10:27:27;11.20;99.90
44166;DHT22;30476;53.468;9.826;2023-12-28T10:29:56;11.20;99.90
44166;DHT22;30476;53.468;9.826;2023-12-28T10:32:23;11.20;99.90
44166;DHT22;30476;53.468;9.826;2023-12-28T10:34:53;11.30;99.90
44166;DHT22;30476;53.468;9.826;2023-12-28T10:37:20;11.20;99.90
44166;DHT22;30476;53.468;9.826;2023-12-28T10:39:49;11.20;99.90
44166;DHT22;30476;53.468;9.826;2023-12-28T10:42:28;11.20;99.90
44166;DHT22;30476;53.468;9.826;2023-12-28T10:45:03;11.20;99.90
44166;DHT22;30476;53.468;9.826;2023-12-28T10:47:32;11.20;99.90
44166;DHT22;30476;53.468;9.826;2023-12-28T10:50:05;11.30;99.90
44166;DHT22;30476;53.468;9.826;2023-12-28T10:52:32;11.30;99.90
44166;DHT22;30476;53.468;9.826;2023-12-28T10:55:16;11.30;99.90
44166;DHT22;30476;53.468;9.826;2023-12-28T10:58:17;11.40;99.90
44166;DHT22;30476;53.468;9.826;2023-12-28T11:00:53;11.40;99.90
44166;DHT22;30476;53.468;9.826;2023-12-28T11:03:23;11.40;99.90
44166;DHT22;30476;53.468;9.826;2023-12-28T11:05:53;11.40;99.90
44166;DHT22;30476;53.468;9.826;2023-12-28T11:08:21;11.40;99.90
44166;DHT22;30476;53.468;9.826;2023-12-28T11:10:48;11.40;99.90
44166;DHT22;30476;53.468;9.826;2023-12-28T11:13:19;11.40;99.90
44166;DHT22;30476;53.468;9.826;2023-12-28T11:15:46;11.50;99.90
44166;DHT22;30476;53.468;9.826;2023-12-28T11:18:15;11.50;99.90
44166;DHT22;30476;53.468;9.826;2023-12-28T11:20:42;11.50;99.90
44166;DHT22;30476;53.468;9.826;2023-12-28T11:23:10;11.40;99.90
44166;DHT22;30476;53.468;9.826;2023-12-28T11:25:36;11.50;99.90
44166;DHT22;30476;53.468;9.826;2023-12-28T11:28:09;11.50;99.90
44166;DHT22;30476;53.468;9.826;2023-12-28T11:30:35;11.50;99.90
44166;DHT22;30476;53.468;9.826;2023-12-28T11:33:03;11.50;99.90
44166;DHT22;30476;53.468;9.826;2023-12-28T11:35:39;11.50;99.90
44166;DHT22;30476;53.468;9.826;2023-12-28T11:38:08;11.50;99.90
44166;DHT22;30476;53.468;9.826;2023-12-28T11:40:45;11.60;99.90
44166;DHT22;30476;53.468;9.826;2023-12-28T11:43:18;11.60;99.90
44166;DHT22;30476;53.468;9.826;2023-12-28T11:46:10;11.60;99.90
44166;DHT22;30476;53.468;9.826;2023-12-28T11:48:37;11.60;99.90
44166;DHT22;30476;53.468;9.826;2023-12-28T11:51:03;11.60;99.90
44166;DHT22;30476;53.468;9.826;2023-12-28T11:53:29;11.60;99.90
44166;DHT22;30476;53.468;9.826;2023-12-28T11:56:01;11.60;99.90
44166;DHT22;30476;53.468;9.826;2023-12-28T11:58:31;11.70;99.90
44166;DHT22;30476;53.468;9.826;2023-12-28T12:00:58;11.70;99.90
44166;DHT22;30476;53.468;9.826;2023-12-28T12:03:25;11.70;99.90
44166;DHT22;30476;53.468;9.826;2023-12-28T12:05:52;11.80;99.90
44166;DHT22;30476;53.468;9.826;2023-12-28T12:08:17;11.80;99.90
44166;DHT22;30476;53.468;9.826;2023-12-28T12:10:43;11.80;99.90
44166;DHT22;30476;53.468;9.826;2023-12-28T12:13:09;11.80;99.90
44166;DHT22;30476;53.468;9.826;2023-12-28T12:15:35;11.80;99.90
44166;DHT22;30476;53.468;9.826;2023-12-28T12:18:02;11.80;99.90
44166;DHT22;30476;53.468;9.826;2023-12-28T12:20:29;11.70;99.90
44166;DHT22;30476;53.468;9.826;2023-12-28T12:23:01;11.80;99.90
44166;DHT22;30476;53.468;9.826;2023-12-28T12:25:28;11.80;99.90
44166;DHT22;30476;53.468;9.826;2023-12-28T12:27:54;11.80;99.90
44166;DHT22;30476;53.468;9.826;2023-12-28T12:30:20;11.80;99.90
44166;DHT22;30476;53.468;9.826;2023-12-28T12:32:46;11.90;99.90
44166;DHT22;30476;53.468;9.826;2023-12-28T12:35:12;11.90;99.90
44166;DHT22;30476;53.468;9.826;2023-12-28T12:37:40;11.90;99.90
44166;DHT22;30476;53.468;9.826;2023-12-28T12:40:06;12.00;99.90
44166;DHT22;30476;53.468;9.826;2023-12-28T12:42:33;11.90;99.90
44166;DHT22;30476;53.468;9.826;2023-12-28T12:44:59;11.90;99.90
44166;DHT22;30476;53.468;9.826;2023-12-28T12:47:25;11.90;99.90
44166;DHT22;30476;53.468;9.826;2023-12-28T12:49:55;11.90;99.90
44166;DHT22;30476;53.468;9.826;2023-12-28T12:52:21;11.90;99.90
44166;DHT22;30476;53.468;9.826;2023-12-28T12:54:58;11.90;99.90
44166;DHT22;30476;53.468;9.826;2023-12-28T12:57:27;11.90;99.90
44166;DHT22;30476;53.468;9.826;2023-12-28T12:59:53;11.90;99.90
44166;DHT22;30476;53.468;9.826;2023-12-28T13:02:25;11.90;99.90
44166;DHT22;30476;53.468;9.826;2023-12-28T13:04:54;11.90;99.90
44166;DHT22;30476;53.468;9.826;2023-12-28T13:07:20;11.80;99.90
44166;DHT22;30476;53.468;9.826;2023-12-28T13:09:46;11.80;99.90
44166;DHT22;30476;53.468;9.826;2023-12-28T13:12:12;11.80;99.90
44166;DHT22;30476;53.468;9.826;2023-12-28T13:14:38;11.80;99.90
44166;DHT22;30476;53.468;9.826;2023-12-28T13:17:03;11.80;99.90
44166;DHT22;30476;53.468;9.826;2023-12-28T13:19:29;11.80;99.90
44166;DHT22;30476;53.468;9.826;2023-12-28T13:21:55;11.80;99.90
44166;DHT22;30476;53.468;9.826;2023-12-28T13:24:21;11.80;99.90
44166;DHT22;30476;53.468;9.826;2023-12-28T13:26:47;11.80;99.90
44166;DHT22;30476;53.468;9.826;2023-12-28T13:29:13;11.80;99.90
44166;DHT22;30476;53.468;9.826;2023-12-28T13:31:39;11.80;99.90
44166;DHT22;30476;53.468;9.826;2023-12-28T13:34:05;11.80;99.90
44166;DHT22;30476;53.468;9.826;2023-12-28T13:36:30;11.80;99.90
44166;DHT22;30476;53.468;9.826;2023-12-28T13:38:56;11.80;99.90
44166;DHT22;30476;53.468;9.826;2023-12-28T13:41:22;11.80;99.90
44166;DHT22;30476;53.468;9.826;2023-12-28T13:43:48;11.80;99.90
44166;DHT22;30476;53.468;9.826;2023-12-28T13:46:13;11.80;99.90
44166;DHT22;30476;53.468;9.826;2023-12-28T13:48:39;11.80;99.90
44166;DHT22;30476;53.468;9.826;2023-12-28T13:51:06;11.80;99.90
44166;DHT22;30476;53.468;9.826;2023-12-28T13:53:31;11.80;99.90
44166;DHT22;30476;53.468;9.826;2023-12-28T13:56:01;11.80;99.90
44166;DHT22;30476;53.468;9.826;2023-12-28T13:58:27;11.80;99.90
44166;DHT22;30476;53.468;9.826;2023-12-28T14:00:52;11.80;99.90
44166;DHT22;30476;53.468;9.826;2023-12-28T14:03:18;11.70;99.90
44166;DHT22;30476;53.468;9.826;2023-12-28T14:05:44;11.80;99.90
44166;DHT22;30476;53.468;9.826;2023-12-28T14:08:10;11.70;99.90
44166;DHT22;30476;53.468;9.826;2023-12-28T14:10:36;11.80;99.90
44166;DHT22;30476;53.468;9.826;2023-12-28T14:13:04;11.70;99.90
44166;DHT22;30476;53.468;9.826;2023-12-28T14:15:31;11.70;99.90
44166;DHT22;30476;53.468;9.826;2023-12-28T14:17:57;11.70;99.90
44166;DHT22;30476;53.468;9.826;2023-12-28T14:20:22;11.70;99.90
44166;DHT22;30476;53.468;9.826;2023-12-28T14:22:48;11.70;99.90
44166;DHT22;30476;53.468;9.826;2023-12-28T14:25:15;11.70;99.90
44166;DHT22;30476;53.468;9.826;2023-12-28T14:27:41;11.70;99.90
44166;DHT22;30476;53.468;9.826;2023-12-28T14:30:07;11.70;99.90
44166;DHT22;30476;53.468;9.826;2023-12-28T14:32:35;11.70;99.90
44166;DHT22;30476;53.468;9.826;2023-12-28T14:35:01;11.70;99.90
44166;DHT22;30476;53.468;9.826;2023-12-28T14:37:27;11.70;99.90
44166;DHT22;30476;53.468;9.826;2023-12-28T14:39:53;11.60;99.90
44166;DHT22;30476;53.468;9.826;2023-12-28T14:42:19;11.60;99.90
44166;DHT22;30476;53.468;9.826;2023-12-28T14:44:45;11.60;99.90
44166;DHT22;30476;53.468;9.826;2023-12-28T14:47:10;11.60;99.90
44166;DHT22;30476;53.468;9.826;2023-12-28T14:49:36;11.60;99.90
44166;DHT22;30476;53.468;9.826;2023-12-28T14:52:03;11.70;99.90
44166;DHT22;30476;53.468;9.826;2023-12-28T14:54:29;11.60;99.90
44166;DHT22;30476;53.468;9.826;2023-12-28T14:56:54;11.60;99.90
44166;DHT22;30476;53.468;9.826;2023-12-28T14:59:20;11.60;99.90
44166;DHT22;30476;53.468;9.826;2023-12-28T15:01:46;11.60;99.90
44166;DHT22;30476;53.468;9.826;2023-12-28T15:04:12;11.60;99.90
44166;DHT22;30476;53.468;9.826;2023-12-28T15:06:37;11.70;99.90
44166;DHT22;30476;53.468;9.826;2023-12-28T15:09:03;11.60;99.90
44166;DHT22;30476;53.468;9.826;2023-12-28T15:11:29;11.50;99.90
44166;DHT22;30476;53.468;9.826;2023-12-28T15:13:55;11.60;99.90
44166;DHT22;30476;53.468;9.826;2023-12-28T15:16:21;11.50;99.90
44166;DHT22;30476;53.468;9.826;2023-12-28T15:18:47;11.50;99.90
44166;DHT22;30476;53.468;9.826;2023-12-28T15:21:13;11.50;99.90
44166;DHT22;30476;53.468;9.826;2023-12-28T15:23:39;11.50;99.90
44166;DHT22;30476;53.468;9.826;2023-12-28T15:26:05;11.50;99.90
44166;DHT22;30476;53.468;9.826;2023-12-28T15:28:32;11.50;99.90
44166;DHT22;30476;53.468;9.826;2023-12-28T15:30:58;11.50;99.90
44166;DHT22;30476;53.468;9.826;2023-12-28T15:33:24;11.50;99.90
44166;DHT22;30476;53.468;9.826;2023-12-28T15:35:49;11.50;99.90
44166;DHT22;30476;53.468;9.826;2023-12-28T15:38:15;11.50;99.90